sensor_id;sensor_type;location;lat;lon;timestamp;pressure;altitude;pressure_sealevel;temperature;humidity
73501;BME280;61721;42.206;25.320;2023-03-01T00:01:04;100460.72;;;7.33;81.83
73501;BME280;61721;42.206;25.320;2023-03-01T00:03:32;100466.59;;;7.38;82.70
73501;BME280;61721;42.206;25.320;2023-03-01T00:05:59;100455.94;;;7.38;81.81
73501;BME280;61721;42.206;25.320;2023-03-01T00:08:27;100455.38;;;6.94;83.24
73501;BME280;61721;42.206;25.320;2023-03-01T00:11:03;100438.88;;;7.28;82.91
73501;BME280;61721;42.206;25.320;2023-03-01T00:13:33;100442.16;;;7.31;82.77
73501;BME280;61721;42.206;25.320;2023-03-01T00:16:02;100439.97;;;7.38;82.15
73501;BME280;61721;42.206;25.320;2023-03-01T00:18:30;100449.88;;;7.36;82.53
73501;BME280;61721;42.206;25.320;2023-03-01T00:20:57;100447.75;;;7.41;81.48
73501;BME280;61721;42.206;25.320;2023-03-01T00:23:24;100445.06;;;7.28;82.25
73501;BME280;61721;42.206;25.320;2023-03-01T00:25:52;100455.91;;;7.25;82.27
73501;BME280;61721;42.206;25.320;2023-03-01T00:28:19;100463.59;;;7.30;81.95
73501;BME280;61721;42.206;25.320;2023-03-01T00:30:48;100459.47;;;7.12;83.23
73501;BME280;61721;42.206;25.320;2023-03-01T00:33:16;100462.75;;;6.76;84.29
73501;BME280;61721;42.206;25.320;2023-03-01T00:35:43;100465.41;;;7.03;85.23
73501;BME280;61721;42.206;25.320;2023-03-01T00:38:10;100459.75;;;7.34;82.80
73501;BME280;61721;42.206;25.320;2023-03-01T00:40:37;100452.81;;;6.92;83.60
73501;BME280;61721;42.206;25.320;2023-03-01T00:43:06;100460.38;;;6.85;84.61
73501;BME280;61721;42.206;25.320;2023-03-01T00:45:33;100456.00;;;7.24;83.20
73501;BME280;61721;42.206;25.320;2023-03-01T00:48:01;100461.88;;;6.90;83.59
73501;BME280;61721;42.206;25.320;2023-03-01T00:50:29;100452.53;;;7.36;82.70
73501;BME280;61721;42.206;25.320;2023-03-01T00:52:56;100442.72;;;7.37;83.21
73501;BME280;61721;42.206;25.320;2023-03-01T00:55:24;100443.88;;;7.32;82.45
73501;BME280;61721;42.206;25.320;2023-03-01T00:57:51;100439.56;;;7.44;81.56
73501;BME280;61721;42.206;25.320;2023-03-01T01:00:19;100436.88;;;7.44;82.21
73501;BME280;61721;42.206;25.320;2023-03-01T01:02:47;100447.31;;;6.68;84.31
73501;BME280;61721;42.206;25.320;2023-03-01T01:05:16;100446.47;;;6.95;84.25
73501;BME280;61721;42.206;25.320;2023-03-01T01:07:46;100439.31;;;7.47;82.82
73501;BME280;61721;42.206;25.320;2023-03-01T01:10:14;100435.47;;;7.26;82.62
73501;BME280;61721;42.206;25.320;2023-03-01T01:12:43;100435.19;;;7.04;84.02
73501;BME280;61721;42.206;25.320;2023-03-01T01:15:11;100427.34;;;7.15;83.47
73501;BME280;61721;42.206;25.320;2023-03-01T01:17:39;100427.22;;;7.16;83.57
73501;BME280;61721;42.206;25.320;2023-03-01T01:20:11;100425.16;;;7.34;82.45
73501;BME280;61721;42.206;25.320;2023-03-01T01:22:40;100427.97;;;7.06;82.28
73501;BME280;61721;42.206;25.320;2023-03-01T01:25:08;100418.53;;;7.27;82.55
73501;BME280;61721;42.206;25.320;2023-03-01T01:27:35;100421.09;;;7.16;83.22
73501;BME280;61721;42.206;25.320;2023-03-01T01:30:03;100418.06;;;7.08;83.38
73501;BME280;61721;42.206;25.320;2023-03-01T01:32:30;100419.91;;;7.20;83.36
73501;BME280;61721;42.206;25.320;2023-03-01T01:34:58;100415.63;;;7.17;82.85
73501;BME280;61721;42.206;25.320;2023-03-01T01:37:25;100420.63;;;7.09;83.00
73501;BME280;61721;42.206;25.320;2023-03-01T01:39:58;100421.25;;;7.00;83.62
73501;BME280;61721;42.206;25.320;2023-03-01T01:42:26;100426.34;;;6.91;83.52
73501;BME280;61721;42.206;25.320;2023-03-01T01:45:26;100426.72;;;7.24;83.06
73501;BME280;61721;42.206;25.320;2023-03-01T01:47:56;100428.63;;;7.22;82.70
73501;BME280;61721;42.206;25.320;2023-03-01T01:50:24;100425.41;;;7.69;80.62
73501;BME280;61721;42.206;25.320;2023-03-01T01:52:53;100419.91;;;7.20;83.80
73501;BME280;61721;42.206;25.320;2023-03-01T01:55:25;100431.66;;;6.91;84.52
73501;BME280;61721;42.206;25.320;2023-03-01T01:57:55;100432.22;;;7.08;83.19
73501;BME280;61721;42.206;25.320;2023-03-01T02:00:25;100427.63;;;6.98;83.84
73501;BME280;61721;42.206;25.320;2023-03-01T02:02:56;100429.00;;;6.91;84.47
73501;BME280;61721;42.206;25.320;2023-03-01T02:05:31;100428.75;;;7.33;81.73
73501;BME280;61721;42.206;25.320;2023-03-01T02:08:00;100428.38;;;6.73;84.09
73501;BME280;61721;42.206;25.320;2023-03-01T02:10:29;100433.69;;;7.00;84.32
73501;BME280;61721;42.206;25.320;2023-03-01T02:13:00;100429.88;;;6.77;85.11
73501;BME280;61721;42.206;25.320;2023-03-01T02:15:31;100428.44;;;7.25;83.41
73501;BME280;61721;42.206;25.320;2023-03-01T02:18:00;100418.81;;;7.10;83.64
73501;BME280;61721;42.206;25.320;2023-03-01T02:20:33;100420.78;;;7.33;82.89
73501;BME280;61721;42.206;25.320;2023-03-01T02:23:02;100423.84;;;7.27;81.91
73501;BME280;61721;42.206;25.320;2023-03-01T02:25:39;100421.47;;;6.70;83.70
73501;BME280;61721;42.206;25.320;2023-03-01T02:28:17;100426.91;;;7.08;82.74
73501;BME280;61721;42.206;25.320;2023-03-01T02:30:46;100424.25;;;6.81;83.15
73501;BME280;61721;42.206;25.320;2023-03-01T02:33:28;100421.91;;;6.77;84.40
73501;BME280;61721;42.206;25.320;2023-03-01T02:35:59;100415.94;;;7.00;83.57
73501;BME280;61721;42.206;25.320;2023-03-01T02:38:28;100413.19;;;7.14;83.59
73501;BME280;61721;42.206;25.320;2023-03-01T02:40:56;100407.97;;;7.13;83.63
73501;BME280;61721;42.206;25.320;2023-03-01T02:43:28;100406.25;;;7.12;83.56
73501;BME280;61721;42.206;25.320;2023-03-01T02:45:59;100405.97;;;7.29;82.91
73501;BME280;61721;42.206;25.320;2023-03-01T02:48:26;100397.31;;;7.13;82.39
73501;BME280;61721;42.206;25.320;2023-03-01T02:51:04;100402.13;;;6.81;83.28
73501;BME280;61721;42.206;25.320;2023-03-01T02:53:38;100401.75;;;7.00;83.79
73501;BME280;61721;42.206;25.320;2023-03-01T02:56:07;100403.59;;;6.72;84.77
73501;BME280;61721;42.206;25.320;2023-03-01T02:58:40;100407.00;;;6.74;84.69
73501;BME280;61721;42.206;25.320;2023-03-01T03:01:11;100412.94;;;6.65;84.42
73501;BME280;61721;42.206;25.320;2023-03-01T03:03:39;100424.44;;;7.57;81.26
73501;BME280;61721;42.206;25.320;2023-03-01T03:06:06;100419.47;;;6.86;84.19
73501;BME280;61721;42.206;25.320;2023-03-01T03:08:34;100413.03;;;6.91;84.43
73501;BME280;61721;42.206;25.320;2023-03-01T03:11:01;100401.81;;;7.25;82.61
73501;BME280;61721;42.206;25.320;2023-03-01T03:13:28;100404.59;;;7.23;81.27
73501;BME280;61721;42.206;25.320;2023-03-01T03:15:57;100398.34;;;6.98;82.99
73501;BME280;61721;42.206;25.320;2023-03-01T03:18:25;100408.50;;;6.78;83.98
73501;BME280;61721;42.206;25.320;2023-03-01T03:20:53;100394.88;;;7.10;82.76
73501;BME280;61721;42.206;25.320;2023-03-01T03:23:21;100404.25;;;7.15;83.64
73501;BME280;61721;42.206;25.320;2023-03-01T03:25:49;100405.09;;;6.76;83.99
73501;BME280;61721;42.206;25.320;2023-03-01T03:28:17;100405.28;;;6.73;84.27
73501;BME280;61721;42.206;25.320;2023-03-01T03:30:45;100401.38;;;7.06;83.55
73501;BME280;61721;42.206;25.320;2023-03-01T03:33:14;100397.66;;;6.81;85.06
73501;BME280;61721;42.206;25.320;2023-03-01T03:35:43;100394.16;;;7.20;83.76
73501;BME280;61721;42.206;25.320;2023-03-01T03:38:13;100397.34;;;6.86;84.74
73501;BME280;61721;42.206;25.320;2023-03-01T03:40:45;100406.16;;;7.13;83.93
73501;BME280;61721;42.206;25.320;2023-03-01T03:43:14;100402.00;;;7.22;83.82
73501;BME280;61721;42.206;25.320;2023-03-01T03:45:43;100399.88;;;7.14;84.06
73501;BME280;61721;42.206;25.320;2023-03-01T03:48:11;100402.03;;;6.82;86.27
73501;BME280;61721;42.206;25.320;2023-03-01T03:50:41;100395.50;;;7.13;85.12
73501;BME280;61721;42.206;25.320;2023-03-01T03:53:11;100397.72;;;7.07;84.54
73501;BME280;61721;42.206;25.320;2023-03-01T03:55:38;100396.44;;;7.00;85.59
73501;BME280;61721;42.206;25.320;2023-03-01T03:58:08;100400.19;;;7.10;84.83
73501;BME280;61721;42.206;25.320;2023-03-01T04:00:38;100393.66;;;7.01;84.89
73501;BME280;61721;42.206;25.320;2023-03-01T04:03:06;100391.50;;;7.20;84.89
73501;BME280;61721;42.206;25.320;2023-03-01T04:05:33;100393.53;;;7.42;83.31
73501;BME280;61721;42.206;25.320;2023-03-01T04:08:02;100392.97;;;7.37;83.81
73501;BME280;61721;42.206;25.320;2023-03-01T04:10:34;100387.59;;;7.51;82.29
73501;BME280;61721;42.206;25.320;2023-03-01T04:13:02;100388.59;;;7.11;83.56
73501;BME280;61721;42.206;25.320;2023-03-01T04:15:31;100379.78;;;7.36;83.90
73501;BME280;61721;42.206;25.320;2023-03-01T04:17:59;100386.25;;;7.31;83.73
73501;BME280;61721;42.206;25.320;2023-03-01T04:20:28;100390.31;;;7.24;83.81
73501;BME280;61721;42.206;25.320;2023-03-01T04:23:02;100387.75;;;7.23;83.80
73501;BME280;61721;42.206;25.320;2023-03-01T04:25:37;100385.66;;;7.91;81.23
73501;BME280;61721;42.206;25.320;2023-03-01T04:28:04;100396.72;;;7.72;82.14
73501;BME280;61721;42.206;25.320;2023-03-01T04:30:32;100394.38;;;7.68;82.75
73501;BME280;61721;42.206;25.320;2023-03-01T04:33:02;100395.56;;;7.26;82.97
73501;BME280;61721;42.206;25.320;2023-03-01T04:35:30;100380.09;;;7.69;81.52
73501;BME280;61721;42.206;25.320;2023-03-01T04:37:58;100387.69;;;7.75;80.91
73501;BME280;61721;42.206;25.320;2023-03-01T04:40:27;100392.88;;;7.39;81.79
73501;BME280;61721;42.206;25.320;2023-03-01T04:42:54;100389.03;;;7.43;83.29
73501;BME280;61721;42.206;25.320;2023-03-01T04:45:21;100387.63;;;7.12;84.05
73501;BME280;61721;42.206;25.320;2023-03-01T04:47:48;100393.97;;;7.61;82.71
73501;BME280;61721;42.206;25.320;2023-03-01T04:50:18;100386.88;;;7.10;83.42
73501;BME280;61721;42.206;25.320;2023-03-01T04:52:47;100384.94;;;6.99;84.50
73501;BME280;61721;42.206;25.320;2023-03-01T04:55:15;100402.31;;;7.17;84.77
73501;BME280;61721;42.206;25.320;2023-03-01T04:57:44;100391.19;;;7.25;83.74
73501;BME280;61721;42.206;25.320;2023-03-01T05:00:13;100395.53;;;6.86;84.42
73501;BME280;61721;42.206;25.320;2023-03-01T05:02:48;100395.97;;;7.20;82.91
73501;BME280;61721;42.206;25.320;2023-03-01T05:05:20;100398.06;;;6.75;84.58
73501;BME280;61721;42.206;25.320;2023-03-01T05:07:52;100395.09;;;7.32;83.87
73501;BME280;61721;42.206;25.320;2023-03-01T05:10:20;100393.69;;;7.14;84.19
73501;BME280;61721;42.206;25.320;2023-03-01T05:12:48;100398.25;;;7.12;84.37
73501;BME280;61721;42.206;25.320;2023-03-01T05:15:17;100392.28;;;6.96;84.21
73501;BME280;61721;42.206;25.320;2023-03-01T05:17:47;100397.31;;;7.13;84.25
73501;BME280;61721;42.206;25.320;2023-03-01T05:20:15;100398.00;;;6.90;84.75
73501;BME280;61721;42.206;25.320;2023-03-01T05:22:42;100409.22;;;6.95;84.64
73501;BME280;61721;42.206;25.320;2023-03-01T05:25:10;100393.16;;;7.09;85.45
73501;BME280;61721;42.206;25.320;2023-03-01T05:27:39;100397.78;;;6.93;85.11
73501;BME280;61721;42.206;25.320;2023-03-01T05:30:10;100395.78;;;6.96;85.74
73501;BME280;61721;42.206;25.320;2023-03-01T05:32:41;100405.84;;;7.18;84.94
73501;BME280;61721;42.206;25.320;2023-03-01T05:35:11;100406.00;;;7.02;85.67
73501;BME280;61721;42.206;25.320;2023-03-01T05:37:43;100409.81;;;6.85;86.50
73501;BME280;61721;42.206;25.320;2023-03-01T05:40:13;100414.31;;;6.71;86.87
73501;BME280;61721;42.206;25.320;2023-03-01T05:42:45;100409.13;;;7.21;85.08
73501;BME280;61721;42.206;25.320;2023-03-01T05:45:16;100417.72;;;7.00;84.79
73501;BME280;61721;42.206;25.320;2023-03-01T05:47:45;100406.47;;;7.21;85.54
73501;BME280;61721;42.206;25.320;2023-03-01T05:50:13;100406.06;;;7.15;85.82
73501;BME280;61721;42.206;25.320;2023-03-01T05:52:45;100406.31;;;7.50;84.23
73501;BME280;61721;42.206;25.320;2023-03-01T05:55:14;100405.25;;;7.52;84.38
73501;BME280;61721;42.206;25.320;2023-03-01T05:57:41;100411.44;;;7.53;84.12
73501;BME280;61721;42.206;25.320;2023-03-01T06:00:10;100415.28;;;7.87;82.21
73501;BME280;61721;42.206;25.320;2023-03-01T06:02:39;100422.00;;;7.80;82.63
73501;BME280;61721;42.206;25.320;2023-03-01T06:05:08;100424.66;;;7.80;82.04
73501;BME280;61721;42.206;25.320;2023-03-01T06:07:35;100424.22;;;7.86;82.18
73501;BME280;61721;42.206;25.320;2023-03-01T06:10:04;100418.16;;;7.84;82.55
73501;BME280;61721;42.206;25.320;2023-03-01T06:12:31;100419.94;;;7.58;83.71
73501;BME280;61721;42.206;25.320;2023-03-01T06:14:59;100430.19;;;7.51;84.00
73501;BME280;61721;42.206;25.320;2023-03-01T06:17:29;100428.84;;;7.19;84.25
73501;BME280;61721;42.206;25.320;2023-03-01T06:19:57;100432.72;;;7.40;84.85
73501;BME280;61721;42.206;25.320;2023-03-01T06:22:25;100436.97;;;7.30;85.44
73501;BME280;61721;42.206;25.320;2023-03-01T06:24:52;100444.66;;;7.47;83.33
73501;BME280;61721;42.206;25.320;2023-03-01T06:27:19;100435.16;;;7.30;84.05
73501;BME280;61721;42.206;25.320;2023-03-01T06:29:46;100438.72;;;7.69;84.17
73501;BME280;61721;42.206;25.320;2023-03-01T06:32:14;100436.13;;;7.42;84.61
73501;BME280;61721;42.206;25.320;2023-03-01T06:34:41;100444.25;;;7.79;82.60
73501;BME280;61721;42.206;25.320;2023-03-01T06:37:10;100436.16;;;7.67;83.87
73501;BME280;61721;42.206;25.320;2023-03-01T06:39:38;100439.34;;;7.60;83.41
73501;BME280;61721;42.206;25.320;2023-03-01T06:42:05;100431.81;;;7.66;82.77
73501;BME280;61721;42.206;25.320;2023-03-01T06:44:32;100430.66;;;7.18;86.36
73501;BME280;61721;42.206;25.320;2023-03-01T06:46:59;100439.34;;;7.08;86.26
73501;BME280;61721;42.206;25.320;2023-03-01T06:49:26;100445.75;;;7.05;85.86
73501;BME280;61721;42.206;25.320;2023-03-01T06:51:54;100433.06;;;7.48;84.51
73501;BME280;61721;42.206;25.320;2023-03-01T06:54:23;100428.63;;;7.22;85.77
73501;BME280;61721;42.206;25.320;2023-03-01T06:56:50;100431.16;;;7.50;84.35
73501;BME280;61721;42.206;25.320;2023-03-01T06:59:18;100433.81;;;7.50;84.68
73501;BME280;61721;42.206;25.320;2023-03-01T07:01:45;100430.78;;;7.29;85.86
73501;BME280;61721;42.206;25.320;2023-03-01T07:04:13;100426.38;;;7.81;83.66
73501;BME280;61721;42.206;25.320;2023-03-01T07:06:40;100421.88;;;7.68;83.49
73501;BME280;61721;42.206;25.320;2023-03-01T07:09:07;100425.06;;;7.48;83.92
73501;BME280;61721;42.206;25.320;2023-03-01T07:11:36;100424.19;;;7.35;83.91
73501;BME280;61721;42.206;25.320;2023-03-01T07:14:03;100426.28;;;7.82;82.82
73501;BME280;61721;42.206;25.320;2023-03-01T07:16:32;100433.09;;;7.86;81.63
73501;BME280;61721;42.206;25.320;2023-03-01T07:18:59;100434.44;;;8.17;80.79
73501;BME280;61721;42.206;25.320;2023-03-01T07:21:27;100428.50;;;7.76;81.17
73501;BME280;61721;42.206;25.320;2023-03-01T07:23:54;100437.44;;;7.49;83.39
73501;BME280;61721;42.206;25.320;2023-03-01T07:26:21;100435.31;;;7.92;82.02
73501;BME280;61721;42.206;25.320;2023-03-01T07:28:50;100446.81;;;8.05;81.84
73501;BME280;61721;42.206;25.320;2023-03-01T07:31:17;100437.66;;;7.71;82.84
73501;BME280;61721;42.206;25.320;2023-03-01T07:33:44;100430.63;;;7.70;81.92
73501;BME280;61721;42.206;25.320;2023-03-01T07:36:11;100436.78;;;7.46;82.54
73501;BME280;61721;42.206;25.320;2023-03-01T07:38:38;100431.97;;;7.38;85.23
73501;BME280;61721;42.206;25.320;2023-03-01T07:41:05;100427.44;;;7.65;83.76
73501;BME280;61721;42.206;25.320;2023-03-01T07:43:33;100428.69;;;7.47;84.28
73501;BME280;61721;42.206;25.320;2023-03-01T07:46:02;100436.97;;;7.43;85.21
73501;BME280;61721;42.206;25.320;2023-03-01T07:48:30;100426.78;;;7.74;83.52
73501;BME280;61721;42.206;25.320;2023-03-01T07:50:58;100428.06;;;7.56;84.16
73501;BME280;61721;42.206;25.320;2023-03-01T07:53:25;100432.31;;;7.46;84.63
73501;BME280;61721;42.206;25.320;2023-03-01T07:56:00;100425.06;;;7.73;83.48
73501;BME280;61721;42.206;25.320;2023-03-01T07:58:28;100421.47;;;7.87;82.72
73501;BME280;61721;42.206;25.320;2023-03-01T08:00:55;100429.13;;;7.92;83.01
73501;BME280;61721;42.206;25.320;2023-03-01T08:03:23;100419.75;;;7.73;82.74
73501;BME280;61721;42.206;25.320;2023-03-01T08:05:51;100422.00;;;7.80;82.73
73501;BME280;61721;42.206;25.320;2023-03-01T08:08:18;100427.41;;;7.78;82.94
73501;BME280;61721;42.206;25.320;2023-03-01T08:10:45;100424.22;;;7.98;81.84
73501;BME280;61721;42.206;25.320;2023-03-01T08:13:12;100423.34;;;7.47;84.70
73501;BME280;61721;42.206;25.320;2023-03-01T08:15:39;100413.75;;;7.19;84.80
73501;BME280;61721;42.206;25.320;2023-03-01T08:18:06;100421.22;;;7.52;83.78
73501;BME280;61721;42.206;25.320;2023-03-01T08:20:35;100420.63;;;7.61;82.87
73501;BME280;61721;42.206;25.320;2023-03-01T08:23:02;100415.28;;;7.61;83.71
73501;BME280;61721;42.206;25.320;2023-03-01T08:25:29;100427.09;;;7.70;82.19
73501;BME280;61721;42.206;25.320;2023-03-01T08:27:57;100414.75;;;7.56;82.70
73501;BME280;61721;42.206;25.320;2023-03-01T08:30:24;100416.34;;;7.46;83.74
73501;BME280;61721;42.206;25.320;2023-03-01T08:32:51;100414.94;;;7.53;83.06
73501;BME280;61721;42.206;25.320;2023-03-01T08:35:19;100419.97;;;7.45;83.48
73501;BME280;61721;42.206;25.320;2023-03-01T08:37:48;100419.84;;;7.85;82.54
73501;BME280;61721;42.206;25.320;2023-03-01T08:40:16;100411.59;;;8.26;80.66
73501;BME280;61721;42.206;25.320;2023-03-01T08:42:43;100421.34;;;7.63;81.96
73501;BME280;61721;42.206;25.320;2023-03-01T08:45:11;100428.91;;;7.44;82.89
73501;BME280;61721;42.206;25.320;2023-03-01T08:47:39;100423.28;;;7.61;82.78
73501;BME280;61721;42.206;25.320;2023-03-01T08:50:08;100426.72;;;7.24;83.57
73501;BME280;61721;42.206;25.320;2023-03-01T08:52:35;100423.56;;;7.44;83.89
73501;BME280;61721;42.206;25.320;2023-03-01T08:55:05;100419.31;;;7.80;83.07
73501;BME280;61721;42.206;25.320;2023-03-01T08:57:32;100419.09;;;7.95;81.26
73501;BME280;61721;42.206;25.320;2023-03-01T08:59:59;100416.97;;;7.88;81.62
73501;BME280;61721;42.206;25.320;2023-03-01T09:02:27;100412.72;;;7.72;82.26
73501;BME280;61721;42.206;25.320;2023-03-01T09:04:54;100415.28;;;7.74;81.49
73501;BME280;61721;42.206;25.320;2023-03-01T09:07:21;100413.13;;;7.79;81.40
73501;BME280;61721;42.206;25.320;2023-03-01T09:09:54;100413.56;;;7.86;81.53
73501;BME280;61721;42.206;25.320;2023-03-01T09:12:22;100407.81;;;7.41;83.18
73501;BME280;61721;42.206;25.320;2023-03-01T09:14:50;100401.84;;;7.63;82.40
73501;BME280;61721;42.206;25.320;2023-03-01T09:17:17;100404.19;;;7.67;82.16
73501;BME280;61721;42.206;25.320;2023-03-01T09:19:47;100409.31;;;7.45;82.55
73501;BME280;61721;42.206;25.320;2023-03-01T09:22:15;100414.00;;;7.54;84.08
73501;BME280;61721;42.206;25.320;2023-03-01T09:24:42;100416.53;;;7.43;83.30
73501;BME280;61721;42.206;25.320;2023-03-01T09:27:09;100412.91;;;7.44;84.46
73501;BME280;61721;42.206;25.320;2023-03-01T09:29:39;100416.13;;;7.49;83.88
73501;BME280;61721;42.206;25.320;2023-03-01T09:32:07;100418.59;;;7.65;83.47
73501;BME280;61721;42.206;25.320;2023-03-01T09:34:34;100415.16;;;7.50;83.31
73501;BME280;61721;42.206;25.320;2023-03-01T09:37:22;100416.09;;;7.24;84.14
73501;BME280;61721;42.206;25.320;2023-03-01T09:39:50;100415.28;;;7.61;81.33
73501;BME280;61721;42.206;25.320;2023-03-01T09:42:17;100423.38;;;7.72;82.18
73501;BME280;61721;42.206;25.320;2023-03-01T09:44:48;100423.13;;;7.25;84.40
73501;BME280;61721;42.206;25.320;2023-03-01T09:47:20;100420.78;;;7.20;84.05
73501;BME280;61721;42.206;25.320;2023-03-01T09:50:00;100421.38;;;7.11;83.02
73501;BME280;61721;42.206;25.320;2023-03-01T09:52:34;100412.91;;;7.95;82.54
73501;BME280;61721;42.206;25.320;2023-03-01T09:55:08;100413.09;;;7.16;83.72
73501;BME280;61721;42.206;25.320;2023-03-01T09:57:41;100417.81;;;7.63;82.55
73501;BME280;61721;42.206;25.320;2023-03-01T10:00:23;100416.31;;;7.21;83.37
73501;BME280;61721;42.206;25.320;2023-03-01T10:02:59;100412.25;;;7.28;84.15
73501;BME280;61721;42.206;25.320;2023-03-01T10:05:36;100419.28;;;7.42;82.37
73501;BME280;61721;42.206;25.320;2023-03-01T10:08:27;100402.13;;;7.33;84.42
73501;BME280;61721;42.206;25.320;2023-03-01T10:10:57;100398.00;;;7.42;84.44
73501;BME280;61721;42.206;25.320;2023-03-01T10:13:31;100402.06;;;7.72;82.68
73501;BME280;61721;42.206;25.320;2023-03-01T10:16:06;100400.97;;;7.88;81.65
73501;BME280;61721;42.206;25.320;2023-03-01T10:18:37;100394.72;;;7.76;82.03
73501;BME280;61721;42.206;25.320;2023-03-01T10:21:14;100389.47;;;7.24;84.06
73501;BME280;61721;42.206;25.320;2023-03-01T10:23:43;100391.84;;;7.66;82.84
73501;BME280;61721;42.206;25.320;2023-03-01T10:26:25;100383.94;;;7.52;82.21
73501;BME280;61721;42.206;25.320;2023-03-01T10:29:01;100393.88;;;7.50;81.99
73501;BME280;61721;42.206;25.320;2023-03-01T10:31:38;100386.06;;;7.47;84.53
73501;BME280;61721;42.206;25.320;2023-03-01T10:34:12;100382.69;;;7.45;84.05
73501;BME280;61721;42.206;25.320;2023-03-01T10:36:41;100382.41;;;7.99;82.37
73501;BME280;61721;42.206;25.320;2023-03-01T10:39:17;100384.47;;;7.45;84.01
73501;BME280;61721;42.206;25.320;2023-03-01T10:41:56;100385.22;;;7.34;85.62
73501;BME280;61721;42.206;25.320;2023-03-01T10:44:44;100384.16;;;7.49;84.09
73501;BME280;61721;42.206;25.320;2023-03-01T10:47:23;100370.28;;;7.19;85.76
73501;BME280;61721;42.206;25.320;2023-03-01T10:49:56;100376.47;;;7.57;84.59
73501;BME280;61721;42.206;25.320;2023-03-01T10:52:27;100362.97;;;7.60;84.80
73501;BME280;61721;42.206;25.320;2023-03-01T10:54:56;100374.53;;;7.21;86.43
73501;BME280;61721;42.206;25.320;2023-03-01T10:57:36;100372.19;;;7.04;87.70
73501;BME280;61721;42.206;25.320;2023-03-01T11:00:20;100364.34;;;7.28;87.12
73501;BME280;61721;42.206;25.320;2023-03-01T11:02:51;100363.47;;;7.27;86.48
73501;BME280;61721;42.206;25.320;2023-03-01T11:05:29;100360.81;;;7.78;84.28
73501;BME280;61721;42.206;25.320;2023-03-01T11:08:00;100362.22;;;7.46;86.70
73501;BME280;61721;42.206;25.320;2023-03-01T11:10:29;100363.38;;;7.67;86.25
73501;BME280;61721;42.206;25.320;2023-03-01T11:13:07;100363.28;;;7.43;85.76
73501;BME280;61721;42.206;25.320;2023-03-01T11:15:35;100349.44;;;7.25;85.13
73501;BME280;61721;42.206;25.320;2023-03-01T11:18:04;100351.13;;;7.64;84.32
73501;BME280;61721;42.206;25.320;2023-03-01T11:20:34;100347.50;;;7.65;83.73
73501;BME280;61721;42.206;25.320;2023-03-01T11:23:04;100345.50;;;7.44;84.80
73501;BME280;61721;42.206;25.320;2023-03-01T11:25:37;100346.56;;;7.54;85.19
73501;BME280;61721;42.206;25.320;2023-03-01T11:28:10;100342.84;;;7.31;85.14
73501;BME280;61721;42.206;25.320;2023-03-01T11:30:44;100334.09;;;7.42;85.30
73501;BME280;61721;42.206;25.320;2023-03-01T11:33:24;100330.34;;;7.57;84.61
73501;BME280;61721;42.206;25.320;2023-03-01T11:36:00;100325.78;;;7.59;85.88
73501;BME280;61721;42.206;25.320;2023-03-01T11:38:32;100319.06;;;7.53;84.72
73501;BME280;61721;42.206;25.320;2023-03-01T11:41:06;100316.09;;;7.32;85.38
73501;BME280;61721;42.206;25.320;2023-03-01T11:43:40;100307.47;;;7.54;85.36
73501;BME280;61721;42.206;25.320;2023-03-01T11:46:31;100296.38;;;7.22;85.41
73501;BME280;61721;42.206;25.320;2023-03-01T11:49:13;100295.03;;;7.91;83.66
73501;BME280;61721;42.206;25.320;2023-03-01T11:51:48;100298.19;;;7.60;84.12
73501;BME280;61721;42.206;25.320;2023-03-01T11:54:35;100304.06;;;7.27;85.45
73501;BME280;61721;42.206;25.320;2023-03-01T11:57:16;100302.44;;;7.62;84.22
73501;BME280;61721;42.206;25.320;2023-03-01T12:00:13;100294.91;;;7.44;85.14
73501;BME280;61721;42.206;25.320;2023-03-01T12:08:41;100283.19;;;7.46;86.88
73501;BME280;61721;42.206;25.320;2023-03-01T12:11:22;100281.22;;;7.73;85.89
73501;BME280;61721;42.206;25.320;2023-03-01T12:14:03;100284.44;;;7.53;85.63
73501;BME280;61721;42.206;25.320;2023-03-01T12:16:46;100278.88;;;7.69;85.71
73501;BME280;61721;42.206;25.320;2023-03-01T12:19:30;100287.09;;;7.53;85.41
73501;BME280;61721;42.206;25.320;2023-03-01T12:22:21;100286.69;;;7.47;85.19
73501;BME280;61721;42.206;25.320;2023-03-01T12:28:09;100283.81;;;7.37;86.30
73501;BME280;61721;42.206;25.320;2023-03-01T12:30:58;100285.63;;;7.37;86.27
73501;BME280;61721;42.206;25.320;2023-03-01T12:33:34;100283.25;;;7.57;86.77
73501;BME280;61721;42.206;25.320;2023-03-01T12:36:31;100289.25;;;7.48;85.97
73501;BME280;61721;42.206;25.320;2023-03-01T12:39:15;100282.75;;;7.27;86.59
73501;BME280;61721;42.206;25.320;2023-03-01T12:41:48;100284.69;;;7.25;86.60
73501;BME280;61721;42.206;25.320;2023-03-01T12:44:32;100290.84;;;7.38;87.33
73501;BME280;61721;42.206;25.320;2023-03-01T12:47:20;100288.09;;;7.40;87.63
73501;BME280;61721;42.206;25.320;2023-03-01T12:49:54;100285.75;;;7.22;88.27
73501;BME280;61721;42.206;25.320;2023-03-01T12:52:29;100277.09;;;7.06;88.22
73501;BME280;61721;42.206;25.320;2023-03-01T12:55:08;100268.78;;;7.49;88.16
73501;BME280;61721;42.206;25.320;2023-03-01T12:57:40;100265.31;;;7.36;87.47
73501;BME280;61721;42.206;25.320;2023-03-01T13:00:21;100277.22;;;7.43;88.91
73501;BME280;61721;42.206;25.320;2023-03-01T13:02:59;100266.59;;;7.30;87.90
73501;BME280;61721;42.206;25.320;2023-03-01T13:05:39;100258.56;;;7.55;86.93
73501;BME280;61721;42.206;25.320;2023-03-01T13:08:16;100262.75;;;7.34;87.11
73501;BME280;61721;42.206;25.320;2023-03-01T13:10:50;100261.69;;;7.24;88.26
73501;BME280;61721;42.206;25.320;2023-03-01T13:13:20;100271.69;;;7.33;88.07
73501;BME280;61721;42.206;25.320;2023-03-01T13:15:48;100268.06;;;7.21;87.59
73501;BME280;61721;42.206;25.320;2023-03-01T13:18:30;100274.56;;;7.17;87.59